Hauptseite
METAR-TAF:

METAR-TAF

Flughäfen :

Flughafen Helsinki-Vantaa

Helsinki, Finnland

Breite: 60-19N, Länge: 024-58E, Höhe: 51 m

Beobachtung

Neuester Wetterbericht von vor 11 Minuten, um 11:20 UTC
Wind 16 kt aus Südwest
Temperatur 20°C
Luftfeuchtigkeit 73%
Luftdruck 1005 hPa
Sichtweite 10 km oder mehr
Durchbrochene Bewölkung in der Höhe von 2500 ft

METAR: EFHK 191120Z 22016KT 9999 BKN025 20/15 Q1005 NOSIG

Zeit: 14:31 (11:31 UTC)

Prognose

Neuester Wetterbericht von vor 2 Stunden und 57 Minuten, um 08:34 UTC
Gültige Prognose vom 19 um 09 UTC bis 20 um 09 UTC
Wind 15 kt aus Südwest
Sichtweite 10 km oder mehr
keine Wolken unter 1500 m und keine Kumulonimbus oder Gewitterwolken

TAF: EFHK 190834Z 1909/2009 22015KT CAVOK

Wetterbeobachtungen und Prognosen von mehr als 4000 Flughäfen (METAR und TAF Bericht).

Die verfügbaren Stationen werden durch gelbe und rote Markierungen auf der Karte dargestellt.

Führen Sie die Maus auf sie, um den Namen der Station zu sehen.

Darauf klicken, um die Beobachtung von Wetterbeobachtungen und Prognosen zu sehen.

Um die Karte zu ändern : klicken Sie auf den grünen Tasten mit einem schwarzen Kreuz Zum Vergrößern, auf den grünen Button mit einem Gedankenstrich zu verkleinern, oder auf die grünen Pfeile für benachbarte Karten.


METAR-TAF: